ロンドン/ヒースロー の空港の天気 - METARとTAF

ロンドン・ヒースロー空港 ( EGLL / LHR ) - イギリス ロンドン
飛行場実況気象(Metar)
観測時間03/20 19:50 GMT (03/20 19:50 UTC)
風向・風速西南西 4m/s
視程10km以上
天気現象
全天を覆う雲 雲底高度 640m
気温12℃
湿度77%
気圧1033hPa
METAREGLL 201950Z AUTO 24007KT 9999 OVC021 12/08 Q1033 NOSIG
過去の天気等 Google飛行場航空写真 Wunderground天気予報

過去48時間のMETAR

飛行場予報(TAF)
発表時間: 3/20 16:53 GMT (3/20 16:53 UTC)
予報対象時間: 20日18時 GMT ~ 22日0時 GMT
風向・風速南南西 3m/s
視程10km以上
全天の8割程度の雲 雲底高度 610m
20日23時 GMT ~ 21日2時 GMT に徐々に
全天の8割程度の雲 雲底高度 300m
20日23時 GMT ~ 21日10時 GMT に一時的に
視程7000m
全天の8割程度の雲 雲底高度 180m
21日2時 GMT ~ 21日8時 GMT に 確率 30% で一時的に
視程4000m
天気現象もや
全天の8割程度の雲 雲底高度 120m
21日12時 GMT ~ 21日15時 GMT に徐々に
全天の8割程度の雲 雲底高度 460m
21日19時 GMT ~ 21日22時 GMT に徐々に
全天の8割程度の雲 雲底高度 300m
21日21時 GMT ~ 21日24時 GMT に一時的に
視程6000m
全天の8割程度の雲 雲底高度 180m
TAF EGLL 201653Z 2018/2124 21006KT 9999 BKN020
BECMG 2023/2102 BKN010
TEMPO 2023/2110 7000 BKN006
PROB30 TEMPO 2102/2108 4000 BR BKN004
BECMG 2112/2115 BKN015
BECMG 2119/2122 BKN010
TEMPO 2121/2124 6000 BKN006